createdAt,value
2022-08-21T00:02:27.495Z,97756.67
2022-08-21T00:05:31.899Z,97758.90
2022-08-21T00:08:34.882Z,97760.86
2022-08-21T00:11:39.983Z,97761.86
2022-08-21T00:14:42.905Z,97758.09
2022-08-21T00:17:49.681Z,97756.42
2022-08-21T00:20:53.037Z,97756.96
2022-08-21T00:23:56.134Z,97751.98
2022-08-21T00:26:59.869Z,97751.17
2022-08-21T00:30:05.290Z,97752.39
2022-08-21T00:33:09.276Z,97752.90
2022-08-21T00:36:13.116Z,97752.45
2022-08-21T00:39:16.213Z,97750.10
2022-08-21T00:42:20.957Z,97748.14
2022-08-21T00:45:24.621Z,97745.72
2022-08-21T00:48:27.953Z,97740.42
2022-08-21T00:51:39.094Z,97736.20
2022-08-21T00:54:43.303Z,97732.13
2022-08-21T00:57:52.960Z,97729.48
2022-08-21T01:00:55.950Z,97722.36
2022-08-21T01:03:59.054Z,97724.92
2022-08-21T01:07:02.410Z,97722.98
2022-08-21T01:10:07.717Z,97717.30
2022-08-21T01:13:14.685Z,97714.80
2022-08-21T01:16:21.945Z,97705.88
2022-08-21T01:19:25.859Z,97699.71
2022-08-21T01:22:29.024Z,97697.88
2022-08-21T01:25:33.265Z,97694.93
2022-08-21T01:28:41.911Z,97691.89
2022-08-21T01:31:44.894Z,97687.73
2022-08-21T01:34:50.427Z,97682.04
2022-08-21T01:37:53.382Z,97679.04
2022-08-21T01:40:57.564Z,97677.65
2022-08-21T01:44:00.622Z,97672.20
2022-08-21T01:47:06.627Z,97667.02
2022-08-21T01:50:13.118Z,97663.89
2022-08-21T01:53:16.405Z,97650.28
2022-08-21T01:56:19.533Z,97646.11
2022-08-21T01:59:24.046Z,97644.23
2022-08-21T02:02:27.001Z,97635.48
2022-08-21T02:05:29.924Z,97626.51
2022-08-21T02:08:32.904Z,97622.83
2022-08-21T02:11:36.930Z,97626.98
2022-08-21T02:14:40.033Z,97625.60
2022-08-21T02:17:46.966Z,97630.23
2022-08-21T02:20:54.143Z,97624.67
2022-08-21T02:23:59.694Z,97618.92
2022-08-21T02:27:02.695Z,97617.48
2022-08-21T02:30:05.999Z,97617.55
2022-08-21T02:33:10.671Z,97617.45
2022-08-21T02:36:13.633Z,97615.80
2022-08-21T02:39:16.585Z,97610.15
2022-08-21T02:42:31.334Z,97605.98
2022-08-21T02:45:35.780Z,97601.56
2022-08-21T02:48:39.204Z,97610.98
2022-08-21T02:51:42.428Z,97615.48
2022-08-21T02:54:45.390Z,97617.09
2022-08-21T02:57:49.278Z,97620.00
2022-08-21T03:00:52.545Z,97621.73
2022-08-21T03:03:55.430Z,97616.56
2022-08-21T03:06:58.624Z,97619.77
2022-08-21T03:10:01.904Z,97621.30
2022-08-21T03:13:04.880Z,97615.73
2022-08-21T03:16:10.049Z,97612.77
2022-08-21T03:19:13.840Z,97620.48
2022-08-21T03:22:16.860Z,97620.29
2022-08-21T03:25:28.370Z,97620.14
2022-08-21T03:28:43.689Z,97618.80
2022-08-21T03:31:46.632Z,97620.38
2022-08-21T03:34:49.763Z,97620.79
2022-08-21T03:37:52.837Z,97621.81
2022-08-21T03:40:55.804Z,97627.86
2022-08-21T03:43:59.726Z,97633.36
2022-08-21T03:47:02.751Z,97636.90
2022-08-21T03:50:06.523Z,97639.86
2022-08-21T03:53:17.454Z,97640.43
2022-08-21T03:56:21.227Z,97642.86
2022-08-21T03:59:25.235Z,97643.45
2022-08-21T04:02:29.843Z,97644.77
2022-08-21T04:05:33.985Z,97644.17
2022-08-21T04:08:37.130Z,97642.05
2022-08-21T04:11:40.325Z,97639.39
2022-08-21T04:14:43.196Z,97633.42
2022-08-21T04:17:46.027Z,97631.77
2022-08-21T04:20:52.282Z,97634.16
2022-08-21T04:23:56.451Z,97639.52
2022-08-21T04:26:59.569Z,97640.02
2022-08-21T04:30:03.097Z,97640.22
2022-08-21T04:33:05.998Z,97642.06
2022-08-21T04:36:09.380Z,97642.95
2022-08-21T04:39:12.573Z,97645.32
2022-08-21T04:42:15.486Z,97649.27
2022-08-21T04:45:26.086Z,97652.25
2022-08-21T04:48:29.074Z,97650.27
2022-08-21T04:51:35.631Z,97650.38
2022-08-21T04:54:39.019Z,97649.06
2022-08-21T04:57:49.211Z,97648.95
2022-08-21T05:00:55.211Z,97650.36
2022-08-21T05:04:01.181Z,97652.13
2022-08-21T05:07:08.286Z,97651.86
2022-08-21T05:10:12.388Z,97659.77
2022-08-21T05:13:17.479Z,97664.70
2022-08-21T05:16:37.267Z,97667.16
2022-08-21T05:19:41.712Z,97672.00
2022-08-21T05:22:44.596Z,97676.72
2022-08-21T05:25:47.513Z,97681.30
2022-08-21T05:28:51.665Z,97681.50
2022-08-21T05:31:54.599Z,97686.73
2022-08-21T05:34:57.749Z,97696.64
2022-08-21T05:38:02.204Z,97696.75
2022-08-21T05:41:05.518Z,97699.19
2022-08-21T05:44:10.202Z,97705.13
2022-08-21T05:47:13.611Z,97712.57
2022-08-21T05:50:16.614Z,97713.77
2022-08-21T05:53:21.883Z,97719.75
2022-08-21T05:56:24.779Z,97714.96
2022-08-21T05:59:28.666Z,97715.11
2022-08-21T06:02:32.041Z,97715.64
2022-08-21T06:05:36.476Z,97718.08
2022-08-21T06:08:40.499Z,97719.23
2022-08-21T06:11:43.433Z,97721.27
2022-08-21T06:14:46.414Z,97724.65
2022-08-21T06:17:49.348Z,97727.23
2022-08-21T06:20:52.174Z,97731.91
2022-08-21T06:23:55.090Z,97736.36
2022-08-21T06:26:58.356Z,97741.66
2022-08-21T06:30:01.360Z,97738.69
2022-08-21T06:33:04.566Z,97744.97
2022-08-21T06:36:07.849Z,97747.16
2022-08-21T06:39:16.555Z,97744.95
2022-08-21T06:42:29.193Z,97741.86
2022-08-21T06:45:32.651Z,97740.39
2022-08-21T06:48:35.698Z,97736.75
2022-08-21T06:51:40.058Z,97734.84
2022-08-21T06:54:43.128Z,97739.45
2022-08-21T06:57:52.619Z,97738.30
2022-08-21T07:01:00.547Z,97736.48
2022-08-21T07:04:04.402Z,97732.44
2022-08-21T07:07:07.369Z,97735.20
2022-08-21T07:10:21.793Z,97736.64
2022-08-21T07:13:25.206Z,97738.52
2022-08-21T07:16:28.448Z,97738.91
2022-08-21T07:19:31.666Z,97742.54
2022-08-21T07:22:36.911Z,97739.02
2022-08-21T07:25:40.439Z,97743.39
2022-08-21T07:28:43.453Z,97736.80
2022-08-21T07:31:46.697Z,97739.34
2022-08-21T07:34:49.870Z,97737.30
2022-08-21T07:37:52.831Z,97741.85
2022-08-21T07:40:57.836Z,97739.16
2022-08-21T07:44:01.368Z,97739.27
2022-08-21T07:47:04.669Z,97741.70
2022-08-21T07:50:08.054Z,97734.55
2022-08-21T07:53:12.443Z,97733.89
2022-08-21T07:56:15.425Z,97729.40
2022-08-21T07:59:18.478Z,97735.74
2022-08-21T08:02:29.913Z,97727.64
2022-08-21T08:05:33.820Z,97726.51
2022-08-21T08:08:38.389Z,97723.30
2022-08-21T08:11:44.809Z,97721.50
2022-08-21T08:14:51.328Z,97720.70
2022-08-21T08:18:04.272Z,97720.02
2022-08-21T08:21:11.354Z,97718.52
2022-08-21T08:24:19.580Z,97717.19
2022-08-21T08:27:22.854Z,97721.56
2022-08-21T08:30:28.894Z,97722.00
2022-08-21T08:33:34.225Z,97723.64
2022-08-21T08:36:38.427Z,97719.16
2022-08-21T08:39:43.969Z,97722.98
2022-08-21T08:42:48.409Z,97731.48
2022-08-21T08:45:54.397Z,97731.80
2022-08-21T08:49:04.412Z,97732.98
2022-08-21T08:52:29.772Z,97731.35
2022-08-21T08:55:42.032Z,97735.06
2022-08-21T08:58:46.203Z,97733.02
2022-08-21T09:01:49.690Z,97734.83
2022-08-21T09:04:52.835Z,97730.98
2022-08-21T09:08:26.396Z,97738.42
2022-08-21T09:11:35.443Z,97736.71
2022-08-21T09:15:01.082Z,97735.45
2022-08-21T09:18:15.185Z,97727.55
2022-08-21T09:22:22.571Z,97721.24
2022-08-21T09:25:29.176Z,97717.87
2022-08-21T09:28:34.600Z,97714.35
2022-08-21T09:31:40.812Z,97721.02
2022-08-21T09:34:43.772Z,97726.80
2022-08-21T09:37:58.525Z,97729.10
2022-08-21T09:41:09.950Z,97733.42
2022-08-21T09:44:12.923Z,97736.30
2022-08-21T09:47:23.808Z,97733.50
2022-08-21T09:50:30.200Z,97731.12
2022-08-21T09:53:36.054Z,97729.84
2022-08-21T09:57:15.419Z,97727.66
2022-08-21T10:00:23.885Z,97732.86
2022-08-21T10:03:27.107Z,97732.40
2022-08-21T10:06:30.590Z,97735.23
2022-08-21T10:09:33.947Z,97731.30
2022-08-21T10:13:08.457Z,97729.73
2022-08-21T10:16:19.816Z,97735.52
2022-08-21T10:19:41.551Z,97739.51
2022-08-21T10:23:08.953Z,97738.14
2022-08-21T10:26:19.347Z,97736.77
2022-08-21T10:29:37.518Z,97740.72
2022-08-21T10:33:02.084Z,97740.89
2022-08-21T10:36:10.179Z,97744.25
2022-08-21T10:39:26.463Z,97741.24
2022-08-21T10:43:08.501Z,97740.28
2022-08-21T10:46:41.540Z,97737.10
2022-08-21T10:50:09.229Z,97744.25
2022-08-21T10:53:36.845Z,97748.79
2022-08-21T10:56:42.398Z,97749.00
2022-08-21T10:59:59.005Z,97751.43
2022-08-21T11:03:12.168Z,97749.13
2022-08-21T11:06:24.111Z,97749.52
2022-08-21T11:09:27.844Z,97748.48
2022-08-21T11:12:47.933Z,97751.64
2022-08-21T11:16:06.605Z,97754.25
2022-08-21T11:19:23.550Z,97761.52
2022-08-21T11:22:51.369Z,97763.67
2022-08-21T11:26:05.327Z,97761.64
2022-08-21T11:29:22.042Z,97764.45
2022-08-21T11:33:12.145Z,97763.42
2022-08-21T11:36:27.346Z,97764.30
2022-08-21T11:39:41.548Z,97763.55
2022-08-21T11:43:02.672Z,97773.02
2022-08-21T11:46:08.238Z,97772.29
2022-08-21T11:49:32.658Z,97772.26
2022-08-21T11:52:46.504Z,97770.15
2022-08-21T11:56:16.266Z,97769.60
2022-08-21T11:59:27.900Z,97770.88
2022-08-21T12:02:54.801Z,97770.27
2022-08-21T12:06:02.338Z,97769.07
2022-08-21T12:09:28.347Z,97772.09
2022-08-21T12:12:38.335Z,97767.61
2022-08-21T12:15:41.646Z,97766.23
2022-08-21T12:18:44.651Z,97766.69
2022-08-21T12:22:10.010Z,97765.64
2022-08-21T12:25:21.875Z,97766.17
2022-08-21T12:28:26.201Z,97772.21
2022-08-21T12:31:30.605Z,97772.33
2022-08-21T12:34:41.961Z,97768.58
2022-08-21T12:37:58.103Z,97769.33
2022-08-21T12:41:16.143Z,97767.77
2022-08-21T12:44:33.478Z,97767.56
2022-08-21T12:48:00.911Z,97766.25
2022-08-21T12:51:16.494Z,97765.81
2022-08-21T12:54:32.254Z,97765.05
2022-08-21T12:57:37.522Z,97764.36
2022-08-21T13:00:50.661Z,97764.56
2022-08-21T13:04:04.360Z,97766.79
2022-08-21T13:07:12.170Z,97768.62
2022-08-21T13:10:28.818Z,97770.92
2022-08-21T13:13:32.210Z,97769.63
2022-08-21T13:16:36.360Z,97766.16
2022-08-21T13:23:29.781Z,97786.16
2022-08-21T13:26:32.811Z,97779.65
2022-08-21T13:29:37.444Z,97779.92
2022-08-21T13:32:44.576Z,97785.06
2022-08-21T13:35:49.599Z,97790.44
2022-08-21T13:38:54.608Z,97795.34
2022-08-21T13:42:01.867Z,97793.21
2022-08-21T13:45:17.685Z,97794.11
2022-08-21T13:48:22.519Z,97793.50
2022-08-21T13:51:25.663Z,97796.95
2022-08-21T13:54:42.075Z,97799.16
2022-08-21T13:57:45.305Z,97797.80
2022-08-21T14:00:51.757Z,97799.29
2022-08-21T14:04:03.488Z,97794.66
2022-08-21T14:07:25.179Z,97790.84
2022-08-21T14:10:29.362Z,97792.91
2022-08-21T14:13:38.077Z,97794.58
2022-08-21T14:16:56.613Z,97803.95
2022-08-21T14:20:00.037Z,97805.80
2022-08-21T14:23:03.797Z,97805.45
2022-08-21T14:26:08.168Z,97807.11
2022-08-21T14:29:14.546Z,97803.98
2022-08-21T14:32:25.011Z,97807.39
2022-08-21T14:35:28.447Z,97804.04
2022-08-21T14:38:33.564Z,97796.41
2022-08-21T14:41:37.838Z,97798.85
2022-08-21T14:44:40.960Z,97808.21
2022-08-21T14:47:44.906Z,97813.63
2022-08-21T14:50:48.476Z,97816.19
2022-08-21T14:53:51.676Z,97820.89
2022-08-21T14:56:56.084Z,97820.09
2022-08-21T15:00:02.138Z,97818.22
2022-08-21T15:03:05.694Z,97822.66
2022-08-21T15:06:10.343Z,97823.55
2022-08-21T15:09:13.380Z,97823.90
2022-08-21T15:12:16.721Z,97829.25
2022-08-21T15:15:20.077Z,97823.80
2022-08-21T15:18:27.621Z,97823.02
2022-08-21T15:21:31.092Z,97820.44
2022-08-21T15:24:34.627Z,97820.77
2022-08-21T15:27:38.033Z,97825.53
2022-08-21T15:30:42.519Z,97825.07
2022-08-21T15:33:45.537Z,97827.45
2022-08-21T15:36:48.988Z,97829.71
2022-08-21T15:39:54.054Z,97828.65
2022-08-21T15:43:21.450Z,97829.83
2022-08-21T15:46:38.407Z,97830.80
2022-08-21T15:49:46.051Z,97830.17
2022-08-21T15:52:49.118Z,97835.01
2022-08-21T15:56:27.000Z,97841.70
2022-08-21T15:59:40.871Z,97849.02
2022-08-21T16:02:57.673Z,97850.31
2022-08-21T16:06:00.977Z,97855.86
2022-08-21T16:09:04.232Z,97860.87
2022-08-21T16:12:08.804Z,97857.98
2022-08-21T16:15:20.116Z,97857.27
2022-08-21T16:18:24.215Z,97854.09
2022-08-21T16:21:28.132Z,97854.64
2022-08-21T16:24:36.592Z,97853.08
2022-08-21T16:27:47.588Z,97845.79
2022-08-21T16:30:51.332Z,97842.90
2022-08-21T16:33:57.896Z,97846.33
2022-08-21T16:37:01.014Z,97841.44
2022-08-21T16:40:04.929Z,97840.52
2022-08-21T16:43:08.536Z,97839.23
2022-08-21T16:46:14.295Z,97845.88
2022-08-21T16:49:17.274Z,97845.14
2022-08-21T16:52:20.381Z,97850.11
2022-08-21T16:55:23.613Z,97852.57
2022-08-21T16:58:33.216Z,97847.36
2022-08-21T17:01:37.248Z,97842.63
2022-08-21T17:04:41.596Z,97845.04
2022-08-21T17:07:45.508Z,97841.54
2022-08-21T17:10:50.926Z,97841.41
2022-08-21T17:13:55.289Z,97834.57
2022-08-21T17:17:00.070Z,97830.08
2022-08-21T17:20:05.001Z,97831.17
2022-08-21T17:23:11.205Z,97833.58
2022-08-21T17:26:16.495Z,97833.42
2022-08-21T17:29:25.609Z,97825.23
2022-08-21T17:32:28.573Z,97826.20
2022-08-21T17:35:32.872Z,97827.27
2022-08-21T17:38:38.833Z,97826.58
2022-08-21T17:41:42.105Z,97832.40
2022-08-21T17:44:47.568Z,97837.71
2022-08-21T17:47:50.762Z,97836.37
2022-08-21T17:50:54.512Z,97845.52
2022-08-21T17:53:57.579Z,97851.86
2022-08-21T17:57:01.184Z,97856.48
2022-08-21T18:00:08.066Z,97856.02
2022-08-21T18:03:20.922Z,97854.38
2022-08-21T18:06:27.243Z,97856.25
2022-08-21T18:09:30.624Z,97858.09
2022-08-21T18:12:34.917Z,97855.17
2022-08-21T18:15:38.222Z,97857.99
2022-08-21T18:18:43.576Z,97854.86
2022-08-21T18:21:46.509Z,97850.86
2022-08-21T18:24:49.520Z,97859.69
2022-08-21T18:27:53.108Z,97862.76
2022-08-21T18:30:56.200Z,97865.70
2022-08-21T18:34:03.703Z,97867.90
2022-08-21T18:37:08.187Z,97866.88
2022-08-21T18:40:12.108Z,97866.41
2022-08-21T18:43:15.995Z,97867.36
2022-08-21T18:46:19.944Z,97867.59
2022-08-21T18:49:23.267Z,97866.35
2022-08-21T18:52:28.821Z,97860.80
2022-08-21T18:55:33.117Z,97860.33
2022-08-21T18:58:39.763Z,97859.96
2022-08-21T19:01:44.362Z,97860.89
2022-08-21T19:04:54.325Z,97854.79
2022-08-21T19:08:00.662Z,97849.39
2022-08-21T19:11:04.762Z,97845.77
2022-08-21T19:14:15.684Z,97841.23
2022-08-21T19:17:23.086Z,97832.88
2022-08-21T19:20:36.522Z,97828.83
2022-08-21T19:23:40.315Z,97827.39
2022-08-21T19:26:45.532Z,97830.21
2022-08-21T19:29:49.254Z,97832.59
2022-08-21T19:32:53.410Z,97831.05
2022-08-21T19:35:57.194Z,97828.66
2022-08-21T19:39:08.402Z,97822.22
2022-08-21T19:42:28.811Z,97813.08
2022-08-21T19:45:49.819Z,97816.08
2022-08-21T19:49:15.224Z,97814.21
2022-08-21T19:53:23.313Z,97802.88
2022-08-21T20:01:16.751Z,97789.60
2022-08-21T20:04:53.720Z,97783.21
2022-08-21T20:08:20.220Z,97779.71
2022-08-21T20:11:31.796Z,97779.56
2022-08-21T20:14:41.989Z,97777.61
2022-08-21T20:17:45.205Z,97778.58
2022-08-21T20:20:49.062Z,97781.10
2022-08-21T20:23:55.599Z,97784.83
2022-08-21T20:27:21.932Z,97789.55
2022-08-21T20:30:27.910Z,97783.59
2022-08-21T20:33:32.467Z,97783.77
2022-08-21T20:36:39.494Z,97784.48
2022-08-21T20:39:47.111Z,97783.52
2022-08-21T20:42:54.697Z,97781.30
2022-08-21T20:46:00.865Z,97782.20
2022-08-21T20:49:10.521Z,97781.52
2022-08-21T20:52:17.236Z,97784.80
2022-08-21T20:55:29.026Z,97784.48
2022-08-21T20:58:48.187Z,97781.63
2022-08-21T21:01:55.326Z,97776.77
2022-08-21T21:05:16.966Z,97778.04
2022-08-21T21:08:19.956Z,97785.38
2022-08-21T21:14:56.811Z,97787.14
2022-08-21T21:18:14.089Z,97780.30
2022-08-21T21:21:41.262Z,97775.71
2022-08-21T21:25:13.023Z,97787.92
2022-08-21T21:28:30.915Z,97782.21
2022-08-21T21:31:34.124Z,97785.44
2022-08-21T21:34:41.919Z,97781.45
2022-08-21T21:37:55.214Z,97781.02
2022-08-21T21:41:19.474Z,97777.23
2022-08-21T21:44:33.381Z,97773.02
2022-08-21T21:48:05.531Z,97773.40
2022-08-21T21:51:15.852Z,97777.37
2022-08-21T21:54:39.731Z,97778.25
2022-08-21T21:57:53.865Z,97777.79
2022-08-21T22:01:11.058Z,97779.64
2022-08-21T22:04:31.942Z,97777.96
2022-08-21T22:07:46.061Z,97782.73
2022-08-21T22:10:55.130Z,97782.64
2022-08-21T22:14:04.100Z,97782.37
2022-08-21T22:17:32.410Z,97785.70
2022-08-21T22:20:53.174Z,97782.66
2022-08-21T22:24:05.884Z,97784.46
2022-08-21T22:27:17.039Z,97781.48
2022-08-21T22:31:06.602Z,97787.78
2022-08-21T22:34:19.390Z,97782.77
2022-08-21T22:37:34.845Z,97782.72
2022-08-21T22:40:37.755Z,97786.23
2022-08-21T22:43:55.484Z,97785.30
2022-08-21T22:47:03.677Z,97785.45
2022-08-21T22:50:22.112Z,97781.18
2022-08-21T22:53:30.242Z,97777.86
2022-08-21T22:56:38.669Z,97774.86
2022-08-21T23:00:02.009Z,97776.88
2022-08-21T23:03:05.291Z,97773.42
2022-08-21T23:06:25.943Z,97776.16
2022-08-21T23:09:29.755Z,97768.91
2022-08-21T23:12:39.473Z,97774.80
2022-08-21T23:15:55.246Z,97772.96
2022-08-21T23:19:07.333Z,97772.52
2022-08-21T23:22:28.783Z,97772.10
2022-08-21T23:26:17.404Z,97771.33
2022-08-21T23:29:42.429Z,97770.23
2022-08-21T23:33:20.289Z,97769.48
2022-08-21T23:36:48.739Z,97763.27
2022-08-21T23:40:03.039Z,97762.20
2022-08-21T23:43:38.708Z,97754.19
2022-08-21T23:47:10.550Z,97754.40
2022-08-21T23:50:32.400Z,97756.84
2022-08-21T23:54:05.612Z,97758.33
2022-08-21T23:57:42.436Z,97761.92
